Time;durP1;ratioP1;P1;durP2;ratioP2;P2;SDS_P1;SDS_P2;PMS_P1;PMS_P2;Temp;Humidity;BMP_temperature;BMP_pressure;BME280_temperature;BME280_humidity;BME280_pressure;Samples;Min_cycle;Max_cycle;Signal;HPM_P1;HPM_P2
2023/08/30 00:02:11;;;;;;;4.73;3.20;;;;;;;;;;5009149;28;20175;-75
2023/08/30 00:04:37;;;;;;;3.53;3.23;;;;;;;;;;5012131;28;20179;-77
2023/08/30 00:07:03;;;;;;;3.87;3.00;;;;;;;;;;5010235;28;20674;-77
2023/08/30 00:09:29;;;;;;;4.13;2.97;;;;;;;;;;5010608;28;20202;-76
2023/08/30 00:11:56;;;;;;;3.30;3.00;;;;;;;;;;5008302;28;20669;-77
2023/08/30 00:14:22;;;;;;;3.40;3.10;;;;;;;;;;5011139;28;20187;-77
2023/08/30 00:16:48;;;;;;;3.70;2.90;;;;;;;;;;5011377;28;20183;-77
2023/08/30 00:19:14;;;;;;;3.83;2.97;;;;;;;;;;5005260;28;20944;-77
2023/08/30 00:21:40;;;;;;;3.27;2.97;;;;;;;;;;5010842;28;20230;-77
2023/08/30 00:24:06;;;;;;;3.77;2.90;;;;;;;;;;5007808;28;20195;-77
2023/08/30 00:26:32;;;;;;;3.27;2.67;;;;;;;;;;5003375;28;20176;-77
2023/08/30 00:29:01;;;;;;;3.10;2.90;;;;;;;;;;5007992;28;20217;-77
2023/08/30 00:31:29;;;;;;;2.87;2.67;;;;;;;;;;5008073;28;20259;-77
2023/08/30 00:33:55;;;;;;;3.30;3.00;;;;;;;;;;5016263;28;20190;-77
2023/08/30 00:36:22;;;;;;;3.93;3.00;;;;;;;;;;4997578;28;20194;-77
2023/08/30 00:38:49;;;;;;;3.07;2.77;;;;;;;;;;4996365;28;20214;-77
2023/08/30 00:41:15;;;;;;;3.33;2.90;;;;;;;;;;5005726;28;20653;-76
2023/08/30 00:43:41;;;;;;;4.43;2.50;;;;;;;;;;5007609;28;20678;-77
2023/08/30 00:46:07;;;;;;;3.53;2.57;;;;;;;;;;5008972;28;20266;-76
2023/08/30 00:48:34;;;;;;;3.20;2.83;;;;;;;;;;5003474;28;20207;-77
2023/08/30 00:51:00;;;;;;;3.17;2.80;;;;;;;;;;5007184;28;20203;-77
2023/08/30 00:53:26;;;;;;;3.10;2.77;;;;;;;;;;5009045;28;20191;-77
2023/08/30 00:55:52;;;;;;;3.03;2.73;;;;;;;;;;5006928;28;20179;-77
2023/08/30 00:58:18;;;;;;;2.70;2.50;;;;;;;;;;5006947;28;20219;-77
2023/08/30 01:00:44;;;;;;;3.23;2.60;;;;;;;;;;5001486;28;20291;-77
2023/08/30 01:03:10;;;;;;;3.40;2.30;;;;;;;;;;5013288;28;20353;-77
2023/08/30 01:05:37;;;;;;;3.77;2.47;;;;;;;;;;5008111;28;20246;-76
2023/08/30 01:08:04;;;;;;;2.80;2.50;;;;;;;;;;5007048;28;20189;-77
2023/08/30 01:10:49;;;;;;;2.60;2.40;;;;;;;;;;5011889;28;20226;-77
2023/08/30 01:13:19;;;;;;;2.30;2.13;;;;;;;;;;5008377;28;20191;-76
2023/08/30 01:15:47;;;;;;;3.97;2.50;;;;;;;;;;5009398;28;20677;-76
2023/08/30 01:18:16;;;;;;;3.57;2.43;;;;;;;;;;4987027;28;20218;-77
2023/08/30 01:20:44;;;;;;;3.90;2.63;;;;;;;;;;5006661;28;20218;-77
2023/08/30 01:23:13;;;;;;;4.07;2.60;;;;;;;;;;5005585;28;20184;-77
2023/08/30 01:25:53;;;;;;;4.00;2.80;;;;;;;;;;4989805;28;20278;-77
2023/08/30 01:28:23;;;;;;;2.80;2.60;;;;;;;;;;5009948;28;20205;-76
2023/08/30 01:30:57;;;;;;;2.43;2.23;;;;;;;;;;5004781;28;20242;-76
2023/08/30 01:33:23;;;;;;;3.30;2.80;;;;;;;;;;5004218;28;20190;-77
2023/08/30 01:35:51;;;;;;;4.60;2.77;;;;;;;;;;5007435;28;20214;-77
2023/08/30 01:38:18;;;;;;;2.77;2.40;;;;;;;;;;5005981;28;20211;-77
2023/08/30 01:40:44;;;;;;;2.70;2.50;;;;;;;;;;5008966;28;20281;-77
2023/08/30 01:43:11;;;;;;;3.53;2.90;;;;;;;;;;5009861;28;20205;-77
2023/08/30 01:45:39;;;;;;;3.07;2.80;;;;;;;;;;5001744;28;20466;-77
2023/08/30 01:48:09;;;;;;;3.00;2.80;;;;;;;;;;5018192;28;20225;-77
2023/08/30 01:50:35;;;;;;;3.03;2.83;;;;;;;;;;5007689;28;20213;-77
2023/08/30 01:53:02;;;;;;;4.43;3.00;;;;;;;;;;4993292;28;20199;-77
2023/08/30 01:55:30;;;;;;;3.53;3.10;;;;;;;;;;5009730;28;20184;-77
2023/08/30 01:57:58;;;;;;;4.00;3.10;;;;;;;;;;5005845;28;20241;-77
2023/08/30 02:00:26;;;;;;;3.43;3.10;;;;;;;;;;4993595;28;20876;-76
2023/08/30 02:02:52;;;;;;;3.33;3.03;;;;;;;;;;5009534;28;20180;-77
2023/08/30 02:05:19;;;;;;;4.37;3.50;;;;;;;;;;5006594;28;20270;-77
2023/08/30 02:07:57;;;;;;;4.17;3.50;;;;;;;;;;5008217;28;20190;-77
2023/08/30 02:10:25;;;;;;;3.73;3.43;;;;;;;;;;5001540;28;20614;-77
2023/08/30 02:12:54;;;;;;;3.57;3.27;;;;;;;;;;5007644;28;20861;-77
2023/08/30 02:15:21;;;;;;;4.03;3.20;;;;;;;;;;4992248;28;20206;-76
2023/08/30 02:17:49;;;;;;;4.83;3.27;;;;;;;;;;5006314;28;20215;-78
2023/08/30 02:20:15;;;;;;;3.70;3.40;;;;;;;;;;5009161;28;20207;-75
2023/08/30 02:22:41;;;;;;;3.37;3.07;;;;;;;;;;5004707;28;20188;-77
2023/08/30 02:25:07;;;;;;;3.73;3.30;;;;;;;;;;5002965;28;20180;-77
2023/08/30 02:27:37;;;;;;;3.93;3.10;;;;;;;;;;4992457;28;20263;-77
2023/08/30 02:30:03;;;;;;;3.47;3.00;;;;;;;;;;5008608;28;20268;-77
2023/08/30 02:32:30;;;;;;;3.67;3.37;;;;;;;;;;5014034;28;20187;-76
2023/08/30 02:34:57;;;;;;;3.50;3.20;;;;;;;;;;5012671;28;20678;-75
2023/08/30 02:37:24;;;;;;;3.53;3.23;;;;;;;;;;5009560;28;20669;-77
2023/08/30 02:39:50;;;;;;;3.40;3.10;;;;;;;;;;5007512;28;20526;-77
2023/08/30 02:42:17;;;;;;;3.50;3.20;;;;;;;;;;5009294;28;20209;-74
2023/08/30 02:44:43;;;;;;;3.50;3.20;;;;;;;;;;5007975;28;20179;-75
2023/08/30 02:47:09;;;;;;;3.67;3.17;;;;;;;;;;4993841;28;20273;-75
2023/08/30 02:49:35;;;;;;;3.47;3.17;;;;;;;;;;5003914;28;20192;-75
2023/08/30 02:52:01;;;;;;;4.57;3.30;;;;;;;;;;5016044;28;20225;-76
2023/08/30 02:54:27;;;;;;;4.50;4.10;;;;;;;;;;5013499;28;20195;-77
2023/08/30 02:56:54;;;;;;;4.40;4.00;;;;;;;;;;5015871;28;20191;-77
2023/08/30 02:59:20;;;;;;;6.07;3.93;;;;;;;;;;5007142;28;20718;-75
2023/08/30 03:01:47;;;;;;;4.90;3.60;;;;;;;;;;5007892;28;20290;-75
2023/08/30 03:04:15;;;;;;;4.33;3.90;;;;;;;;;;5012962;28;20248;-76
2023/08/30 03:06:41;;;;;;;4.43;3.70;;;;;;;;;;5005859;28;20271;-76
2023/08/30 03:09:07;;;;;;;4.13;3.73;;;;;;;;;;5007412;28;20604;-76
2023/08/30 03:11:36;;;;;;;3.93;3.63;;;;;;;;;;5019253;28;20213;-76
2023/08/30 03:14:02;;;;;;;4.40;4.00;;;;;;;;;;5008304;28;20189;-76
2023/08/30 03:16:29;;;;;;;5.37;4.00;;;;;;;;;;5011293;28;20190;-77
2023/08/30 03:18:55;;;;;;;4.53;4.17;;;;;;;;;;5006830;28;20207;-77
2023/08/30 03:21:22;;;;;;;4.30;3.90;;;;;;;;;;5005709;28;20207;-77
2023/08/30 03:23:48;;;;;;;4.43;4.00;;;;;;;;;;5021905;28;20334;-77
2023/08/30 03:26:15;;;;;;;4.70;4.30;;;;;;;;;;4993038;28;20192;-76
2023/08/30 03:28:42;;;;;;;4.87;4.47;;;;;;;;;;5002931;28;20245;-76
2023/08/30 03:31:15;;;;;;;5.83;4.77;;;;;;;;;;5034734;22;20726;-76
2023/08/30 03:33:42;;;;;;;5.63;4.90;;;;;;;;;;5035785;28;20904;-76
2023/08/30 03:36:11;;;;;;;5.83;4.43;;;;;;;;;;5050517;28;20268;-76
2023/08/30 03:38:37;;;;;;;7.13;4.57;;;;;;;;;;5049340;28;20197;-76
2023/08/30 03:41:06;;;;;;;5.73;5.20;;;;;;;;;;5051980;28;20206;-76
2023/08/30 03:43:33;;;;;;;6.77;4.43;;;;;;;;;;5046891;28;20198;-76
2023/08/30 03:46:00;;;;;;;5.97;5.37;;;;;;;;;;5047133;28;20189;-76
2023/08/30 03:48:27;;;;;;;5.43;5.00;;;;;;;;;;5046338;28;20345;-76
2023/08/30 03:50:53;;;;;;;6.13;5.43;;;;;;;;;;5045473;28;20205;-77
2023/08/30 03:53:19;;;;;;;6.50;5.90;;;;;;;;;;5041954;28;20196;-77
2023/08/30 03:55:45;;;;;;;6.83;6.20;;;;;;;;;;5047415;28;20192;-76
2023/08/30 03:58:11;;;;;;;6.27;5.30;;;;;;;;;;5042344;28;20209;-76
2023/08/30 04:00:38;;;;;;;6.07;5.57;;;;;;;;;;5046413;28;20220;-76
2023/08/30 04:03:05;;;;;;;6.63;6.03;;;;;;;;;;5039206;28;20204;-76
2023/08/30 04:05:34;;;;;;;6.73;6.13;;;;;;;;;;5046187;28;20249;-76
2023/08/30 04:08:02;;;;;;;5.80;5.30;;;;;;;;;;5046777;28;20276;-76
2023/08/30 04:10:29;;;;;;;6.10;5.60;;;;;;;;;;5012598;28;20194;-76
2023/08/30 04:12:55;;;;;;;6.77;6.17;;;;;;;;;;5029873;28;22016;-76
2023/08/30 04:15:21;;;;;;;6.63;5.97;;;;;;;;;;5044801;28;20670;-76
2023/08/30 04:17:47;;;;;;;6.77;6.10;;;;;;;;;;5048479;28;20210;-76
2023/08/30 04:20:13;;;;;;;7.43;6.77;;;;;;;;;;5042947;28;20217;-76
2023/08/30 04:22:40;;;;;;;6.93;6.33;;;;;;;;;;5048485;28;20265;-77
2023/08/30 04:25:09;;;;;;;7.77;6.90;;;;;;;;;;5045933;28;20717;-76
2023/08/30 04:27:35;;;;;;;8.50;6.97;;;;;;;;;;5046885;28;20676;-76
2023/08/30 04:30:02;;;;;;;7.20;6.50;;;;;;;;;;5045015;28;20252;-77
2023/08/30 04:32:28;;;;;;;7.53;6.83;;;;;;;;;;5043357;28;20835;-76
2023/08/30 04:34:54;;;;;;;8.50;7.33;;;;;;;;;;5045733;28;20217;-76
2023/08/30 04:37:21;;;;;;;7.37;6.63;;;;;;;;;;5048661;28;20215;-76
2023/08/30 04:39:50;;;;;;;7.63;6.80;;;;;;;;;;5049398;28;20185;-76
2023/08/30 04:42:16;;;;;;;7.67;7.00;;;;;;;;;;5026489;28;20201;-77
2023/08/30 04:44:42;;;;;;;7.97;7.17;;;;;;;;;;5040311;28;20178;-76
2023/08/30 04:47:08;;;;;;;7.03;6.43;;;;;;;;;;5048483;28;20573;-76
2023/08/30 04:49:36;;;;;;;7.10;6.40;;;;;;;;;;5046912;28;20277;-76
2023/08/30 04:52:02;;;;;;;7.37;6.77;;;;;;;;;;5049374;28;20209;-76
2023/08/30 04:54:28;;;;;;;7.57;6.87;;;;;;;;;;5042756;28;20268;-76
2023/08/30 04:56:54;;;;;;;7.80;7.10;;;;;;;;;;5049894;28;20273;-76
2023/08/30 04:59:20;;;;;;;7.47;6.77;;;;;;;;;;5042433;28;20186;-76
2023/08/30 05:01:48;;;;;;;7.33;6.73;;;;;;;;;;5045190;28;20206;-76
2023/08/30 05:04:14;;;;;;;8.03;7.00;;;;;;;;;;5048924;28;20189;-76
2023/08/30 05:06:40;;;;;;;7.40;6.70;;;;;;;;;;5049654;28;20601;-76
2023/08/30 05:09:06;;;;;;;8.07;7.30;;;;;;;;;;5047526;28;20289;-76
2023/08/30 05:11:33;;;;;;;7.80;7.10;;;;;;;;;;5039766;28;20202;-76
2023/08/30 05:13:59;;;;;;;8.70;7.80;;;;;;;;;;5044761;28;20213;-78
2023/08/30 05:16:25;;;;;;;8.30;7.50;;;;;;;;;;5042079;28;20191;-77
2023/08/30 05:18:52;;;;;;;7.23;6.53;;;;;;;;;;5046483;28;20220;-76
2023/08/30 05:21:18;;;;;;;7.00;6.30;;;;;;;;;;5039623;28;20207;-77
2023/08/30 05:23:44;;;;;;;7.03;6.43;;;;;;;;;;5048897;28;20174;-77
2023/08/30 05:26:14;;;;;;;7.83;7.03;;;;;;;;;;5049558;28;20648;-78
2023/08/30 05:28:40;;;;;;;7.77;7.03;;;;;;;;;;5043512;28;20178;-77
2023/08/30 05:31:07;;;;;;;7.40;6.80;;;;;;;;;;5029475;28;20252;-80
2023/08/30 05:33:54;;;;;;;7.63;6.93;;;;;;;;;;5034006;28;20215;-79
2023/08/30 05:36:41;;;;;;;7.50;6.90;;;;;;;;;;5041324;28;20714;-80
2023/08/30 05:39:26;;;;;;;8.23;7.53;;;;;;;;;;5044111;28;20197;-79
2023/08/30 05:41:56;;;;;;;8.20;7.33;;;;;;;;;;5046097;28;20789;-81
2023/08/30 05:44:22;;;;;;;7.67;6.80;;;;;;;;;;5035395;28;20186;-80
2023/08/30 05:46:48;;;;;;;8.30;7.50;;;;;;;;;;5047428;28;20186;-80
2023/08/30 05:49:15;;;;;;;7.97;7.30;;;;;;;;;;5041282;28;20215;-79
2023/08/30 05:51:41;;;;;;;7.73;7.13;;;;;;;;;;5046105;28;20198;-79
2023/08/30 05:54:07;;;;;;;9.63;7.13;;;;;;;;;;5032145;28;20191;-79
2023/08/30 05:56:33;;;;;;;7.63;6.93;;;;;;;;;;5029332;28;20276;-80
2023/08/30 05:58:59;;;;;;;7.73;7.13;;;;;;;;;;5018634;28;20217;-79
2023/08/30 06:01:26;;;;;;;8.23;7.43;;;;;;;;;;5048415;28;20193;-79
2023/08/30 06:03:52;;;;;;;9.60;8.67;;;;;;;;;;5037393;28;20254;-79
2023/08/30 06:06:18;;;;;;;7.53;6.83;;;;;;;;;;5048975;28;20188;-81
2023/08/30 06:08:44;;;;;;;7.63;6.70;;;;;;;;;;5039711;28;20213;-80
2023/08/30 06:11:11;;;;;;;8.00;7.20;;;;;;;;;;5043910;28;20264;-80
2023/08/30 06:13:37;;;;;;;8.23;7.43;;;;;;;;;;5027431;28;20194;-79
2023/08/30 06:16:03;;;;;;;9.73;7.87;;;;;;;;;;5045203;28;20186;-79
2023/08/30 06:18:31;;;;;;;8.03;7.33;;;;;;;;;;5044411;28;20209;-80
2023/08/30 06:20:57;;;;;;;10.13;8.00;;;;;;;;;;5046479;28;20285;-79
2023/08/30 06:23:23;;;;;;;8.97;7.70;;;;;;;;;;5041477;28;20811;-79
2023/08/30 06:25:56;;;;;;;8.70;7.90;;;;;;;;;;5032165;28;20272;-80
2023/08/30 06:28:23;;;;;;;7.80;7.20;;;;;;;;;;5040911;28;20656;-79
2023/08/30 06:30:49;;;;;;;8.27;7.57;;;;;;;;;;5036697;28;20244;-79
2023/08/30 06:33:16;;;;;;;8.80;8.00;;;;;;;;;;5040981;28;20190;-79
2023/08/30 06:35:42;;;;;;;8.97;8.07;;;;;;;;;;5047886;28;20189;-79
2023/08/30 06:38:08;;;;;;;9.30;8.40;;;;;;;;;;5050484;28;20209;-79
2023/08/30 06:40:36;;;;;;;8.97;8.13;;;;;;;;;;5035651;28;20272;-79
2023/08/30 06:43:02;;;;;;;9.00;8.10;;;;;;;;;;5039124;28;20218;-79
2023/08/30 06:45:28;;;;;;;8.63;7.80;;;;;;;;;;5044779;28;20204;-80
2023/08/30 06:47:54;;;;;;;8.60;7.77;;;;;;;;;;5037644;28;20218;-79
2023/08/30 06:50:20;;;;;;;8.70;7.83;;;;;;;;;;5038537;28;20200;-79
2023/08/30 06:52:47;;;;;;;8.13;7.40;;;;;;;;;;5037158;28;20192;-79
2023/08/30 06:55:13;;;;;;;7.83;7.03;;;;;;;;;;5043111;28;20182;-79
2023/08/30 06:57:39;;;;;;;8.40;7.47;;;;;;;;;;5045001;28;20211;-79
2023/08/30 07:00:07;;;;;;;8.43;7.60;;;;;;;;;;5042903;28;20187;-79
2023/08/30 07:02:34;;;;;;;8.10;7.40;;;;;;;;;;5038435;28;20230;-79
2023/08/30 07:05:01;;;;;;;8.43;7.63;;;;;;;;;;5019389;28;20173;-79
2023/08/30 07:07:27;;;;;;;7.90;7.10;;;;;;;;;;5045622;28;20190;-81
2023/08/30 07:09:53;;;;;;;7.60;6.90;;;;;;;;;;5038571;28;20189;-80
2023/08/30 07:12:19;;;;;;;7.90;7.10;;;;;;;;;;5035876;28;20262;-78
2023/08/30 07:14:45;;;;;;;7.17;6.57;;;;;;;;;;5039561;28;20213;-77
2023/08/30 07:17:11;;;;;;;7.60;6.90;;;;;;;;;;5039012;28;20681;-77
2023/08/30 07:19:37;;;;;;;7.20;6.53;;;;;;;;;;5038093;28;20787;-80
2023/08/30 07:22:04;;;;;;;9.00;7.13;;;;;;;;;;5041038;28;20559;-81
2023/08/30 07:24:30;;;;;;;8.03;7.10;;;;;;;;;;5028396;28;20285;-78
2023/08/30 07:26:56;;;;;;;8.20;7.40;;;;;;;;;;5041523;28;20178;-78
2023/08/30 07:29:22;;;;;;;7.50;6.80;;;;;;;;;;5047969;28;20289;-78
2023/08/30 07:31:51;;;;;;;7.83;7.13;;;;;;;;;;5038932;28;20300;-78
2023/08/30 07:34:17;;;;;;;9.27;8.30;;;;;;;;;;5030247;28;20182;-82
2023/08/30 07:36:43;;;;;;;8.40;7.57;;;;;;;;;;5045558;28;20178;-78
2023/08/30 07:39:09;;;;;;;8.10;7.40;;;;;;;;;;5039184;28;20212;-78
2023/08/30 07:41:36;;;;;;;8.13;7.30;;;;;;;;;;5040038;28;20206;-79
2023/08/30 07:44:02;;;;;;;8.70;7.80;;;;;;;;;;5037900;28;20695;-82
2023/08/30 07:46:29;;;;;;;8.47;7.73;;;;;;;;;;5025300;28;20273;-76
2023/08/30 07:48:55;;;;;;;8.50;7.73;;;;;;;;;;5035212;28;20248;-76
2023/08/30 07:51:21;;;;;;;7.80;7.10;;;;;;;;;;5044900;28;20280;-77
2023/08/30 07:53:48;;;;;;;8.73;7.83;;;;;;;;;;5040907;28;20194;-76
2023/08/30 07:56:14;;;;;;;9.03;7.50;;;;;;;;;;5034570;28;20574;-76
2023/08/30 07:58:42;;;;;;;8.60;7.70;;;;;;;;;;5048274;28;20217;-77
2023/08/30 08:01:09;;;;;;;8.47;7.67;;;;;;;;;;5040319;28;20646;-76
2023/08/30 08:03:35;;;;;;;9.83;8.37;;;;;;;;;;5033287;28;20179;-77
2023/08/30 08:06:01;;;;;;;9.30;8.40;;;;;;;;;;5036487;28;20179;-77
2023/08/30 08:08:27;;;;;;;9.53;7.20;;;;;;;;;;5044045;28;20271;-77
2023/08/30 08:10:54;;;;;;;8.20;7.50;;;;;;;;;;5042376;28;20198;-78
2023/08/30 08:13:20;;;;;;;7.93;7.13;;;;;;;;;;5040846;28;20375;-77
2023/08/30 08:15:46;;;;;;;9.30;7.63;;;;;;;;;;5044860;28;20712;-76
2023/08/30 08:18:12;;;;;;;7.80;7.10;;;;;;;;;;5045321;28;20206;-77
2023/08/30 08:20:39;;;;;;;8.60;7.80;;;;;;;;;;5038247;28;20309;-78
2023/08/30 08:23:05;;;;;;;8.17;7.47;;;;;;;;;;5040479;28;20189;-79
2023/08/30 08:25:32;;;;;;;8.63;7.83;;;;;;;;;;5024407;28;20186;-76
2023/08/30 08:27:58;;;;;;;8.17;7.47;;;;;;;;;;5045568;28;20646;-76
2023/08/30 08:30:24;;;;;;;9.20;8.33;;;;;;;;;;5040448;28;20194;-76
2023/08/30 08:32:50;;;;;;;8.37;7.67;;;;;;;;;;5044350;28;20185;-77
2023/08/30 08:35:16;;;;;;;8.00;7.30;;;;;;;;;;5042364;28;22092;-76
2023/08/30 08:37:42;;;;;;;8.80;8.00;;;;;;;;;;5049878;28;20229;-76
2023/08/30 08:40:09;;;;;;;10.10;9.10;;;;;;;;;;5046845;28;20265;-76
2023/08/30 08:42:36;;;;;;;9.10;8.30;;;;;;;;;;5037210;28;20202;-76
2023/08/30 08:45:05;;;;;;;9.10;8.30;;;;;;;;;;5042010;28;20538;-80
2023/08/30 08:47:33;;;;;;;8.80;7.93;;;;;;;;;;5045939;28;20198;-77
2023/08/30 08:50:00;;;;;;;9.30;8.40;;;;;;;;;;5049289;28;20189;-77
2023/08/30 08:52:26;;;;;;;10.80;9.80;;;;;;;;;;5043239;28;20606;-77
2023/08/30 08:54:53;;;;;;;10.60;9.70;;;;;;;;;;5029413;28;20205;-77
2023/08/30 08:57:20;;;;;;;9.13;8.33;;;;;;;;;;5046558;28;20206;-77
2023/08/30 08:59:46;;;;;;;9.13;7.97;;;;;;;;;;5045275;28;20707;-77
2023/08/30 09:02:13;;;;;;;8.23;7.43;;;;;;;;;;5043061;28;20611;-77
2023/08/30 09:04:40;;;;;;;8.67;7.43;;;;;;;;;;5043069;28;20236;-77
2023/08/30 09:07:06;;;;;;;7.30;6.60;;;;;;;;;;5050744;28;20189;-77
2023/08/30 09:09:34;;;;;;;7.40;6.80;;;;;;;;;;5029628;28;20191;-79
2023/08/30 09:12:00;;;;;;;8.67;7.90;;;;;;;;;;5037668;28;20229;-81
2023/08/30 09:14:26;;;;;;;7.93;7.33;;;;;;;;;;5039041;28;20182;-78
2023/08/30 09:16:56;;;;;;;8.13;7.33;;;;;;;;;;5044061;28;20187;-79
2023/08/30 09:19:22;;;;;;;7.63;6.93;;;;;;;;;;5042946;28;20191;-79
2023/08/30 09:21:52;;;;;;;7.10;6.50;;;;;;;;;;5035049;28;20205;-79
2023/08/30 09:24:18;;;;;;;8.10;7.30;;;;;;;;;;5034954;28;20182;-79
2023/08/30 09:26:48;;;;;;;7.50;6.80;;;;;;;;;;5032707;28;20192;-78
2023/08/30 09:29:14;;;;;;;7.50;6.53;;;;;;;;;;5046334;28;20193;-78
2023/08/30 09:31:41;;;;;;;7.03;6.03;;;;;;;;;;5062059;22;20222;-77
2023/08/30 09:34:08;;;;;;;6.37;5.77;;;;;;;;;;5051677;28;20681;-77
2023/08/30 09:36:34;;;;;;;6.13;5.53;;;;;;;;;;5051171;28;20193;-77
2023/08/30 09:39:04;;;;;;;7.30;5.70;;;;;;;;;;5051055;28;20304;-77
2023/08/30 09:41:32;;;;;;;6.10;5.50;;;;;;;;;;5046784;28;20207;-77
2023/08/30 09:43:59;;;;;;;6.80;6.00;;;;;;;;;;5040874;28;20197;-77
2023/08/30 09:46:26;;;;;;;6.10;5.50;;;;;;;;;;5045649;28;20181;-77
2023/08/30 09:48:53;;;;;;;6.10;5.50;;;;;;;;;;5051463;28;20178;-79
2023/08/30 09:51:20;;;;;;;7.97;5.13;;;;;;;;;;5044212;28;20207;-78
2023/08/30 09:53:49;;;;;;;7.37;5.70;;;;;;;;;;5044508;28;20288;-80
2023/08/30 09:56:16;;;;;;;6.63;5.27;;;;;;;;;;5054593;28;20186;-79
2023/08/30 09:58:43;;;;;;;6.37;5.50;;;;;;;;;;5063059;28;20209;-79
2023/08/30 10:01:09;;;;;;;5.47;4.97;;;;;;;;;;5035465;28;20214;-79
2023/08/30 10:03:36;;;;;;;5.30;4.80;;;;;;;;;;5038751;28;20185;-81
2023/08/30 10:06:05;;;;;;;5.13;4.63;;;;;;;;;;5066583;28;20193;-82
2023/08/30 10:08:32;;;;;;;5.37;4.47;;;;;;;;;;5056784;28;20195;-81
2023/08/30 10:10:59;;;;;;;5.00;4.60;;;;;;;;;;5065461;28;20201;-82
2023/08/30 10:13:25;;;;;;;5.10;4.60;;;;;;;;;;5047074;28;20174;-83
2023/08/30 10:15:53;;;;;;;5.00;4.50;;;;;;;;;;5028899;28;20186;-85
2023/08/30 10:18:20;;;;;;;4.40;4.00;;;;;;;;;;5027711;28;20618;-83
2023/08/30 10:20:47;;;;;;;4.90;4.40;;;;;;;;;;5033770;28;20253;-82
2023/08/30 10:23:14;;;;;;;4.67;4.20;;;;;;;;;;5035180;28;20186;-81
2023/08/30 10:25:41;;;;;;;6.20;4.50;;;;;;;;;;5040840;28;20562;-83
2023/08/30 10:28:08;;;;;;;6.73;4.70;;;;;;;;;;5041030;28;20200;-79
2023/08/30 10:30:34;;;;;;;4.50;4.10;;;;;;;;;;5021151;28;20191;-81
2023/08/30 10:33:00;;;;;;;4.23;3.73;;;;;;;;;;5014818;28;20221;-82
2023/08/30 10:35:26;;;;;;;5.13;4.10;;;;;;;;;;5037465;28;20194;-80
2023/08/30 10:37:56;;;;;;;5.13;4.57;;;;;;;;;;5038409;28;20209;-82
2023/08/30 10:40:22;;;;;;;4.70;4.30;;;;;;;;;;5017536;28;20282;-82
2023/08/30 10:43:02;;;;;;;4.97;4.53;;;;;;;;;;5033357;28;20205;-81
2023/08/30 10:45:30;;;;;;;4.63;4.20;;;;;;;;;;5031085;28;20324;-80
2023/08/30 10:47:57;;;;;;;4.73;3.57;;;;;;;;;;5030141;28;20186;-79
2023/08/30 10:50:36;;;;;;;4.93;4.17;;;;;;;;;;5025423;28;20186;-83
2023/08/30 10:53:04;;;;;;;4.53;3.77;;;;;;;;;;5024834;28;20212;-81
2023/08/30 10:55:30;;;;;;;4.23;3.60;;;;;;;;;;5009581;28;20179;-81
2023/08/30 10:58:04;;;;;;;3.40;3.10;;;;;;;;;;5030549;28;20569;-81
2023/08/30 11:00:31;;;;;;;4.47;3.60;;;;;;;;;;5027994;28;20224;-81
2023/08/30 11:02:57;;;;;;;4.77;3.57;;;;;;;;;;5029740;28;20204;-81
2023/08/30 11:05:27;;;;;;;4.30;3.70;;;;;;;;;;5013510;28;20227;-81
2023/08/30 11:07:54;;;;;;;3.70;3.10;;;;;;;;;;5029290;28;20874;-81
2023/08/30 11:10:20;;;;;;;4.87;3.33;;;;;;;;;;5029098;28;20257;-81
2023/08/30 11:12:49;;;;;;;3.77;3.00;;;;;;;;;;5030764;28;20202;-81
2023/08/30 11:15:15;;;;;;;3.27;2.97;;;;;;;;;;5029172;28;20189;-81
2023/08/30 11:17:44;;;;;;;3.40;3.10;;;;;;;;;;5028310;28;20215;-81
2023/08/30 11:20:12;;;;;;;3.30;3.00;;;;;;;;;;5020999;28;20252;-80
2023/08/30 11:22:38;;;;;;;3.47;2.80;;;;;;;;;;5044366;28;20213;-80
2023/08/30 11:25:05;;;;;;;4.07;2.90;;;;;;;;;;5028476;28;20210;-80
2023/08/30 11:27:31;;;;;;;3.37;3.07;;;;;;;;;;5023949;28;20193;-78
2023/08/30 11:30:05;;;;;;;3.00;2.80;;;;;;;;;;5027294;28;20192;-84
2023/08/30 11:32:39;;;;;;;2.80;2.57;;;;;;;;;;5023672;28;20227;-77
2023/08/30 11:35:05;;;;;;;3.93;2.63;;;;;;;;;;5026121;28;20197;-79
2023/08/30 11:37:32;;;;;;;3.10;2.70;;;;;;;;;;5032463;28;20215;-80
2023/08/30 11:39:58;;;;;;;2.80;2.47;;;;;;;;;;5028997;28;20191;-79
2023/08/30 11:42:25;;;;;;;3.00;2.70;;;;;;;;;;5031028;28;20228;-78
2023/08/30 11:44:52;;;;;;;2.90;2.60;;;;;;;;;;5035408;28;20187;-79
2023/08/30 11:47:19;;;;;;;3.63;2.70;;;;;;;;;;5008961;28;20647;-75
2023/08/30 11:49:46;;;;;;;3.20;2.90;;;;;;;;;;5018357;28;20196;-75
2023/08/30 11:52:12;;;;;;;2.93;2.63;;;;;;;;;;5003946;28;20214;-76
2023/08/30 11:54:38;;;;;;;2.83;2.50;;;;;;;;;;5023970;28;20574;-75
2023/08/30 11:57:04;;;;;;;3.43;2.53;;;;;;;;;;5021959;28;20227;-75
2023/08/30 11:59:35;;;;;;;2.63;2.23;;;;;;;;;;5019558;28;20297;-76
2023/08/30 12:02:01;;;;;;;2.53;2.33;;;;;;;;;;5027661;28;20642;-76
2023/08/30 12:04:28;;;;;;;3.60;2.43;;;;;;;;;;5022748;28;20178;-76
2023/08/30 12:06:54;;;;;;;3.53;2.67;;;;;;;;;;5021478;28;20265;-75
2023/08/30 12:09:23;;;;;;;2.93;2.70;;;;;;;;;;5036870;28;20225;-76
2023/08/30 12:11:49;;;;;;;2.60;2.37;;;;;;;;;;5022112;28;20202;-76
2023/08/30 12:14:16;;;;;;;3.00;2.27;;;;;;;;;;5026982;28;20185;-76
2023/08/30 12:16:43;;;;;;;2.63;2.33;;;;;;;;;;5033098;28;20262;-76
2023/08/30 12:19:10;;;;;;;2.70;2.50;;;;;;;;;;5022720;28;20218;-76
2023/08/30 12:21:47;;;;;;;3.07;2.67;;;;;;;;;;5031730;28;20206;-76
2023/08/30 12:24:13;;;;;;;3.57;2.27;;;;;;;;;;5031682;28;20210;-76
2023/08/30 12:26:39;;;;;;;2.80;2.40;;;;;;;;;;5029178;28;20217;-76
2023/08/30 12:29:06;;;;;;;2.77;2.40;;;;;;;;;;5027953;28;20190;-76
2023/08/30 12:31:33;;;;;;;4.17;2.50;;;;;;;;;;5024010;28;20276;-76
2023/08/30 12:33:59;;;;;;;2.23;2.03;;;;;;;;;;5026926;28;20196;-74
2023/08/30 12:36:25;;;;;;;2.30;2.10;;;;;;;;;;5030765;28;20635;-73
2023/08/30 12:38:51;;;;;;;3.20;2.17;;;;;;;;;;5027192;28;20217;-75
2023/08/30 12:41:17;;;;;;;2.43;2.10;;;;;;;;;;5026970;28;20304;-74
2023/08/30 12:43:44;;;;;;;2.47;1.80;;;;;;;;;;5025676;28;20252;-74
2023/08/30 12:46:10;;;;;;;2.60;1.90;;;;;;;;;;5027363;28;20571;-74
2023/08/30 12:48:36;;;;;;;2.20;2.00;;;;;;;;;;5028423;28;20190;-74
2023/08/30 12:51:03;;;;;;;2.20;2.00;;;;;;;;;;5023202;28;20580;-74
2023/08/30 12:53:29;;;;;;;3.50;2.10;;;;;;;;;;5033022;28;20186;-74
2023/08/30 12:55:56;;;;;;;2.37;2.00;;;;;;;;;;5031631;28;20218;-74
2023/08/30 12:58:22;;;;;;;3.87;2.00;;;;;;;;;;5036586;28;20244;-74
2023/08/30 13:00:49;;;;;;;3.60;2.10;;;;;;;;;;5030012;28;20279;-74
2023/08/30 13:03:15;;;;;;;2.43;1.90;;;;;;;;;;5033543;28;20540;-74
2023/08/30 13:05:42;;;;;;;2.30;2.10;;;;;;;;;;5032779;28;20180;-74
2023/08/30 13:08:08;;;;;;;4.23;2.80;;;;;;;;;;5032176;28;20195;-73
2023/08/30 13:10:34;;;;;;;5.77;3.37;;;;;;;;;;5025651;28;20686;-74
2023/08/30 13:13:00;;;;;;;5.67;2.80;;;;;;;;;;5033580;28;20278;-74
2023/08/30 13:15:26;;;;;;;4.20;2.50;;;;;;;;;;5033146;28;20188;-74
2023/08/30 13:17:53;;;;;;;4.80;2.77;;;;;;;;;;5031041;28;20694;-74
2023/08/30 13:20:19;;;;;;;4.50;3.07;;;;;;;;;;5029873;28;20188;-73
2023/08/30 13:22:46;;;;;;;4.20;2.50;;;;;;;;;;5030342;28;20788;-74
2023/08/30 13:25:12;;;;;;;5.37;2.97;;;;;;;;;;5031070;28;20267;-74
2023/08/30 13:27:38;;;;;;;3.00;2.70;;;;;;;;;;5010634;28;20188;-74
2023/08/30 13:30:05;;;;;;;3.57;2.90;;;;;;;;;;5024327;28;20197;-74
2023/08/30 13:32:31;;;;;;;3.50;2.60;;;;;;;;;;5021864;28;20215;-74
2023/08/30 13:34:57;;;;;;;2.87;2.43;;;;;;;;;;5027484;28;20776;-74
2023/08/30 13:37:23;;;;;;;2.70;2.47;;;;;;;;;;5033189;28;20218;-74
2023/08/30 13:39:50;;;;;;;2.60;2.40;;;;;;;;;;5033243;28;20191;-74
2023/08/30 13:42:16;;;;;;;2.70;2.30;;;;;;;;;;5031354;28;20304;-74
2023/08/30 13:44:43;;;;;;;3.17;2.40;;;;;;;;;;5029325;28;20520;-74
2023/08/30 13:47:10;;;;;;;4.87;2.70;;;;;;;;;;5030656;28;20185;-74
2023/08/30 13:49:37;;;;;;;4.13;2.50;;;;;;;;;;5028496;28;20185;-74
2023/08/30 13:52:03;;;;;;;3.30;2.23;;;;;;;;;;5032554;28;20291;-74
2023/08/30 13:54:29;;;;;;;3.67;2.37;;;;;;;;;;5033049;28;20181;-74
2023/08/30 13:56:58;;;;;;;3.13;2.40;;;;;;;;;;5012409;28;20216;-74
2023/08/30 13:59:24;;;;;;;2.57;2.10;;;;;;;;;;5024572;28;20208;-74
2023/08/30 14:01:50;;;;;;;3.60;2.30;;;;;;;;;;5038036;28;20252;-74
2023/08/30 14:04:16;;;;;;;2.53;2.20;;;;;;;;;;5036095;28;20285;-74
2023/08/30 14:06:42;;;;;;;3.57;2.27;;;;;;;;;;5034424;28;20210;-75
2023/08/30 14:09:08;;;;;;;3.27;2.17;;;;;;;;;;5029441;28;20182;-74
2023/08/30 14:11:37;;;;;;;3.47;2.10;;;;;;;;;;5027892;28;20209;-74
2023/08/30 14:14:03;;;;;;;5.33;2.17;;;;;;;;;;5028900;28;20186;-74
2023/08/30 14:16:30;;;;;;;3.07;2.30;;;;;;;;;;5026869;28;20229;-74
2023/08/30 14:18:59;;;;;;;2.47;2.07;;;;;;;;;;5028498;28;20288;-74
2023/08/30 14:21:27;;;;;;;2.77;2.23;;;;;;;;;;5029964;28;20208;-74
2023/08/30 14:23:53;;;;;;;2.47;2.17;;;;;;;;;;5023667;28;20193;-74
2023/08/30 14:26:19;;;;;;;2.13;1.93;;;;;;;;;;5031623;28;20240;-74
2023/08/30 14:28:46;;;;;;;3.57;2.00;;;;;;;;;;5029325;28;20201;-74
2023/08/30 14:31:13;;;;;;;3.60;2.17;;;;;;;;;;5026298;28;20593;-74
2023/08/30 14:33:44;;;;;;;2.30;2.07;;;;;;;;;;5031104;28;20549;-74
2023/08/30 14:36:10;;;;;;;2.37;2.10;;;;;;;;;;5033251;28;20658;-74
2023/08/30 14:38:37;;;;;;;2.30;2.00;;;;;;;;;;5026320;28;20665;-74
2023/08/30 14:41:03;;;;;;;3.93;2.60;;;;;;;;;;5034557;28;20218;-75
2023/08/30 14:43:30;;;;;;;2.83;2.10;;;;;;;;;;5035614;28;20274;-75